sensor_id;sensor_type;location;lat;lon;timestamp;temperature;humidity
20035;DHT22;10178;48.034;9.800;2023-03-01T00:01:25;2.50;99.90
20035;DHT22;10178;48.034;9.800;2023-03-01T00:03:52;2.40;99.90
20035;DHT22;10178;48.034;9.800;2023-03-01T00:06:18;2.40;99.90
20035;DHT22;10178;48.034;9.800;2023-03-01T00:08:44;2.40;99.90
20035;DHT22;10178;48.034;9.800;2023-03-01T00:11:19;2.50;99.90
20035;DHT22;10178;48.034;9.800;2023-03-01T00:13:47;2.40;99.90
20035;DHT22;10178;48.034;9.800;2023-03-01T00:16:15;2.40;99.90
20035;DHT22;10178;48.034;9.800;2023-03-01T00:18:41;2.40;99.90
20035;DHT22;10178;48.034;9.800;2023-03-01T00:21:07;2.40;99.90
20035;DHT22;10178;48.034;9.800;2023-03-01T00:23:36;2.40;99.90
20035;DHT22;10178;48.034;9.800;2023-03-01T00:26:06;2.50;99.90
20035;DHT22;10178;48.034;9.800;2023-03-01T00:28:32;2.40;99.90
20035;DHT22;10178;48.034;9.800;2023-03-01T00:31:06;2.40;99.90
20035;DHT22;10178;48.034;9.800;2023-03-01T00:33:32;2.40;99.90
20035;DHT22;10178;48.034;9.800;2023-03-01T00:35:59;2.50;99.90
20035;DHT22;10178;48.034;9.800;2023-03-01T00:38:24;2.40;99.90
20035;DHT22;10178;48.034;9.800;2023-03-01T00:40:50;2.40;99.90
20035;DHT22;10178;48.034;9.800;2023-03-01T00:43:16;2.40;99.90
20035;DHT22;10178;48.034;9.800;2023-03-01T00:45:41;2.40;99.90
20035;DHT22;10178;48.034;9.800;2023-03-01T00:48:07;2.30;99.90
20035;DHT22;10178;48.034;9.800;2023-03-01T00:50:33;2.20;99.90
20035;DHT22;10178;48.034;9.800;2023-03-01T00:52:58;2.20;99.90
20035;DHT22;10178;48.034;9.800;2023-03-01T00:55:24;2.20;99.90
20035;DHT22;10178;48.034;9.800;2023-03-01T00:57:50;2.30;99.90
20035;DHT22;10178;48.034;9.800;2023-03-01T01:00:16;2.20;99.90
20035;DHT22;10178;48.034;9.800;2023-03-01T01:02:42;2.20;99.90
20035;DHT22;10178;48.034;9.800;2023-03-01T01:05:08;2.40;99.90
20035;DHT22;10178;48.034;9.800;2023-03-01T01:07:33;2.30;99.90
20035;DHT22;10178;48.034;9.800;2023-03-01T01:09:59;2.30;99.90
20035;DHT22;10178;48.034;9.800;2023-03-01T01:12:25;2.30;99.90
20035;DHT22;10178;48.034;9.800;2023-03-01T01:14:50;2.30;99.90
20035;DHT22;10178;48.034;9.800;2023-03-01T01:17:16;2.30;99.90
20035;DHT22;10178;48.034;9.800;2023-03-01T01:19:41;2.30;99.90
20035;DHT22;10178;48.034;9.800;2023-03-01T01:22:07;2.30;99.90
20035;DHT22;10178;48.034;9.800;2023-03-01T01:24:32;2.30;99.90
20035;DHT22;10178;48.034;9.800;2023-03-01T01:26:58;2.30;99.90
20035;DHT22;10178;48.034;9.800;2023-03-01T01:29:24;2.40;99.90
20035;DHT22;10178;48.034;9.800;2023-03-01T01:31:49;2.30;99.90
20035;DHT22;10178;48.034;9.800;2023-03-01T01:34:18;2.30;99.90
20035;DHT22;10178;48.034;9.800;2023-03-01T01:36:44;2.30;99.90
20035;DHT22;10178;48.034;9.800;2023-03-01T01:39:10;2.30;99.90
20035;DHT22;10178;48.034;9.800;2023-03-01T01:41:40;2.30;99.90
20035;DHT22;10178;48.034;9.800;2023-03-01T01:44:17;2.30;99.90
20035;DHT22;10178;48.034;9.800;2023-03-01T01:46:52;2.30;99.90
20035;DHT22;10178;48.034;9.800;2023-03-01T01:51:49;2.30;99.90
20035;DHT22;10178;48.034;9.800;2023-03-01T01:54:23;2.30;99.90
20035;DHT22;10178;48.034;9.800;2023-03-01T01:56:59;2.30;99.90
20035;DHT22;10178;48.034;9.800;2023-03-01T01:59:28;2.30;99.90
20035;DHT22;10178;48.034;9.800;2023-03-01T02:01:58;2.30;99.90
20035;DHT22;10178;48.034;9.800;2023-03-01T02:04:24;2.30;99.90
20035;DHT22;10178;48.034;9.800;2023-03-01T02:07:14;2.30;99.90
20035;DHT22;10178;48.034;9.800;2023-03-01T02:09:42;2.30;99.90
20035;DHT22;10178;48.034;9.800;2023-03-01T02:12:09;2.30;99.90
20035;DHT22;10178;48.034;9.800;2023-03-01T02:14:35;2.30;99.90
20035;DHT22;10178;48.034;9.800;2023-03-01T02:17:00;2.30;99.90
20035;DHT22;10178;48.034;9.800;2023-03-01T02:22:46;2.30;99.90
20035;DHT22;10178;48.034;9.800;2023-03-01T02:30:23;2.20;99.90
20035;DHT22;10178;48.034;9.800;2023-03-01T02:32:51;2.20;99.90
20035;DHT22;10178;48.034;9.800;2023-03-01T02:35:18;2.40;99.90
20035;DHT22;10178;48.034;9.800;2023-03-01T02:37:45;2.20;99.90
20035;DHT22;10178;48.034;9.800;2023-03-01T02:40:17;2.20;99.90
20035;DHT22;10178;48.034;9.800;2023-03-01T02:42:49;2.20;99.90
20035;DHT22;10178;48.034;9.800;2023-03-01T02:45:16;2.20;99.90
20035;DHT22;10178;48.034;9.800;2023-03-01T02:47:42;2.20;99.90
20035;DHT22;10178;48.034;9.800;2023-03-01T02:53:27;2.20;99.90
20035;DHT22;10178;48.034;9.800;2023-03-01T02:55:54;2.20;99.90
20035;DHT22;10178;48.034;9.800;2023-03-01T02:58:19;2.20;99.90
20035;DHT22;10178;48.034;9.800;2023-03-01T03:00:46;2.20;99.90
20035;DHT22;10178;48.034;9.800;2023-03-01T03:03:17;2.20;99.90
20035;DHT22;10178;48.034;9.800;2023-03-01T03:05:44;2.20;99.90
20035;DHT22;10178;48.034;9.800;2023-03-01T03:08:10;2.20;99.90
20035;DHT22;10178;48.034;9.800;2023-03-01T03:10:39;2.10;99.90
20035;DHT22;10178;48.034;9.800;2023-03-01T03:13:08;2.00;99.90
20035;DHT22;10178;48.034;9.800;2023-03-01T03:15:34;2.00;99.90
20035;DHT22;10178;48.034;9.800;2023-03-01T03:18:03;2.10;99.90
20035;DHT22;10178;48.034;9.800;2023-03-01T03:20:29;2.10;99.90
20035;DHT22;10178;48.034;9.800;2023-03-01T03:22:56;2.20;99.90
20035;DHT22;10178;48.034;9.800;2023-03-01T03:25:24;2.20;99.90
20035;DHT22;10178;48.034;9.800;2023-03-01T03:27:51;2.20;99.90
20035;DHT22;10178;48.034;9.800;2023-03-01T03:30:27;2.20;99.90
20035;DHT22;10178;48.034;9.800;2023-03-01T03:32:53;2.20;99.90
20035;DHT22;10178;48.034;9.800;2023-03-01T03:35:30;2.10;99.90
20035;DHT22;10178;48.034;9.800;2023-03-01T03:38:08;2.10;99.90
20035;DHT22;10178;48.034;9.800;2023-03-01T03:40:42;2.10;99.90
20035;DHT22;10178;48.034;9.800;2023-03-01T03:43:14;2.10;99.90
20035;DHT22;10178;48.034;9.800;2023-03-01T03:45:40;2.10;99.90
20035;DHT22;10178;48.034;9.800;2023-03-01T03:48:07;2.10;99.90
20035;DHT22;10178;48.034;9.800;2023-03-01T03:50:35;1.80;99.90
20035;DHT22;10178;48.034;9.800;2023-03-01T03:53:05;1.80;99.90
20035;DHT22;10178;48.034;9.800;2023-03-01T03:55:31;1.90;99.90
20035;DHT22;10178;48.034;9.800;2023-03-01T03:58:02;1.90;99.90
20035;DHT22;10178;48.034;9.800;2023-03-01T04:00:33;2.00;99.90
20035;DHT22;10178;48.034;9.800;2023-03-01T04:02:59;2.10;99.90
20035;DHT22;10178;48.034;9.800;2023-03-01T04:05:25;2.10;99.90
20035;DHT22;10178;48.034;9.800;2023-03-01T04:07:50;2.10;99.90
20035;DHT22;10178;48.034;9.800;2023-03-01T04:10:27;2.10;99.90
20035;DHT22;10178;48.034;9.800;2023-03-01T04:12:52;2.10;99.90
20035;DHT22;10178;48.034;9.800;2023-03-01T04:15:18;2.00;99.90
20035;DHT22;10178;48.034;9.800;2023-03-01T04:17:45;2.10;99.90
20035;DHT22;10178;48.034;9.800;2023-03-01T04:20:14;2.10;99.90
20035;DHT22;10178;48.034;9.800;2023-03-01T04:22:43;2.10;99.90
20035;DHT22;10178;48.034;9.800;2023-03-01T04:25:09;2.10;99.90
20035;DHT22;10178;48.034;9.800;2023-03-01T04:27:35;2.20;99.90
20035;DHT22;10178;48.034;9.800;2023-03-01T04:30:04;2.10;99.90
20035;DHT22;10178;48.034;9.800;2023-03-01T04:32:30;2.10;99.90
20035;DHT22;10178;48.034;9.800;2023-03-01T04:34:57;2.10;99.90
20035;DHT22;10178;48.034;9.800;2023-03-01T04:37:22;2.10;99.90
20035;DHT22;10178;48.034;9.800;2023-03-01T04:39:49;2.10;99.90
20035;DHT22;10178;48.034;9.800;2023-03-01T04:42:15;2.00;99.90
20035;DHT22;10178;48.034;9.800;2023-03-01T04:44:40;2.10;99.90
20035;DHT22;10178;48.034;9.800;2023-03-01T04:47:06;2.10;99.90
20035;DHT22;10178;48.034;9.800;2023-03-01T04:49:32;2.20;99.90
20035;DHT22;10178;48.034;9.800;2023-03-01T04:51:57;2.20;99.90
20035;DHT22;10178;48.034;9.800;2023-03-01T04:54:33;2.10;99.90
20035;DHT22;10178;48.034;9.800;2023-03-01T04:56:59;2.10;99.90
20035;DHT22;10178;48.034;9.800;2023-03-01T04:59:25;2.10;99.90
20035;DHT22;10178;48.034;9.800;2023-03-01T05:01:52;2.10;99.90
20035;DHT22;10178;48.034;9.800;2023-03-01T05:04:24;2.10;99.90
20035;DHT22;10178;48.034;9.800;2023-03-01T05:06:50;2.00;99.90
20035;DHT22;10178;48.034;9.800;2023-03-01T05:09:16;2.00;99.90
20035;DHT22;10178;48.034;9.800;2023-03-01T05:11:42;1.90;99.90
20035;DHT22;10178;48.034;9.800;2023-03-01T05:14:08;1.90;99.90
20035;DHT22;10178;48.034;9.800;2023-03-01T05:16:34;2.10;99.90
20035;DHT22;10178;48.034;9.800;2023-03-01T05:19:02;2.00;99.90
20035;DHT22;10178;48.034;9.800;2023-03-01T05:21:37;2.00;99.90
20035;DHT22;10178;48.034;9.800;2023-03-01T05:24:23;2.00;99.90
20035;DHT22;10178;48.034;9.800;2023-03-01T05:26:49;2.00;99.90
20035;DHT22;10178;48.034;9.800;2023-03-01T05:29:15;2.00;99.90
20035;DHT22;10178;48.034;9.800;2023-03-01T05:31:40;2.00;99.90
20035;DHT22;10178;48.034;9.800;2023-03-01T05:34:06;2.00;99.90
20035;DHT22;10178;48.034;9.800;2023-03-01T05:36:31;2.00;99.90
20035;DHT22;10178;48.034;9.800;2023-03-01T05:38:57;2.00;99.90
20035;DHT22;10178;48.034;9.800;2023-03-01T05:41:23;2.00;99.90
20035;DHT22;10178;48.034;9.800;2023-03-01T05:43:49;2.10;99.90
20035;DHT22;10178;48.034;9.800;2023-03-01T05:46:14;2.00;99.90
20035;DHT22;10178;48.034;9.800;2023-03-01T05:48:40;2.00;99.90
20035;DHT22;10178;48.034;9.800;2023-03-01T05:51:06;1.90;99.90
20035;DHT22;10178;48.034;9.800;2023-03-01T05:53:31;1.80;99.90
20035;DHT22;10178;48.034;9.800;2023-03-01T05:55:57;1.90;99.90
20035;DHT22;10178;48.034;9.800;2023-03-01T05:58:23;1.90;99.90
20035;DHT22;10178;48.034;9.800;2023-03-01T06:00:49;1.90;99.90
20035;DHT22;10178;48.034;9.800;2023-03-01T06:03:16;2.00;99.90
20035;DHT22;10178;48.034;9.800;2023-03-01T06:05:43;2.00;99.90
20035;DHT22;10178;48.034;9.800;2023-03-01T06:08:10;2.00;99.90
20035;DHT22;10178;48.034;9.800;2023-03-01T06:10:36;1.70;99.90
20035;DHT22;10178;48.034;9.800;2023-03-01T06:13:02;1.70;99.90
20035;DHT22;10178;48.034;9.800;2023-03-01T06:15:27;1.80;99.90
20035;DHT22;10178;48.034;9.800;2023-03-01T06:17:54;1.90;99.90
20035;DHT22;10178;48.034;9.800;2023-03-01T06:20:24;1.80;99.90
20035;DHT22;10178;48.034;9.800;2023-03-01T06:22:50;1.80;99.90
20035;DHT22;10178;48.034;9.800;2023-03-01T06:25:19;1.90;99.90
20035;DHT22;10178;48.034;9.800;2023-03-01T06:27:45;1.80;99.90
20035;DHT22;10178;48.034;9.800;2023-03-01T06:30:13;1.80;99.90
20035;DHT22;10178;48.034;9.800;2023-03-01T06:32:39;1.90;99.90
20035;DHT22;10178;48.034;9.800;2023-03-01T06:35:10;1.80;99.90
20035;DHT22;10178;48.034;9.800;2023-03-01T06:37:36;1.70;99.90
20035;DHT22;10178;48.034;9.800;2023-03-01T06:40:05;1.80;99.90
20035;DHT22;10178;48.034;9.800;2023-03-01T06:42:37;1.90;99.90
20035;DHT22;10178;48.034;9.800;2023-03-01T06:45:04;1.80;99.90
20035;DHT22;10178;48.034;9.800;2023-03-01T06:47:31;1.90;99.90
20035;DHT22;10178;48.034;9.800;2023-03-01T06:49:56;1.90;99.90
20035;DHT22;10178;48.034;9.800;2023-03-01T06:52:22;1.90;99.90
20035;DHT22;10178;48.034;9.800;2023-03-01T06:54:47;1.80;99.90
20035;DHT22;10178;48.034;9.800;2023-03-01T06:57:13;1.80;99.90
20035;DHT22;10178;48.034;9.800;2023-03-01T06:59:38;1.70;99.90
20035;DHT22;10178;48.034;9.800;2023-03-01T07:02:04;1.80;99.90
20035;DHT22;10178;48.034;9.800;2023-03-01T07:04:30;1.80;99.90
20035;DHT22;10178;48.034;9.800;2023-03-01T07:06:56;1.80;99.90
20035;DHT22;10178;48.034;9.800;2023-03-01T07:09:22;1.80;99.90
20035;DHT22;10178;48.034;9.800;2023-03-01T07:11:48;1.90;99.90
20035;DHT22;10178;48.034;9.800;2023-03-01T07:14:15;1.70;99.90
20035;DHT22;10178;48.034;9.800;2023-03-01T07:16:40;1.70;99.90
20035;DHT22;10178;48.034;9.800;2023-03-01T07:19:06;1.80;99.90
20035;DHT22;10178;48.034;9.800;2023-03-01T07:21:31;1.80;99.90
20035;DHT22;10178;48.034;9.800;2023-03-01T07:23:57;1.70;99.90
20035;DHT22;10178;48.034;9.800;2023-03-01T07:26:23;1.80;99.90
20035;DHT22;10178;48.034;9.800;2023-03-01T07:28:48;1.70;99.90
20035;DHT22;10178;48.034;9.800;2023-03-01T07:31:14;1.80;99.90
20035;DHT22;10178;48.034;9.800;2023-03-01T07:33:39;1.80;99.90
20035;DHT22;10178;48.034;9.800;2023-03-01T07:36:06;1.80;99.90
20035;DHT22;10178;48.034;9.800;2023-03-01T07:38:32;1.80;99.90
20035;DHT22;10178;48.034;9.800;2023-03-01T07:40:59;1.80;99.90
20035;DHT22;10178;48.034;9.800;2023-03-01T07:43:26;1.70;99.90
20035;DHT22;10178;48.034;9.800;2023-03-01T07:45:52;1.70;99.90
20035;DHT22;10178;48.034;9.800;2023-03-01T07:48:17;1.80;99.90
20035;DHT22;10178;48.034;9.800;2023-03-01T07:50:43;1.80;99.90
20035;DHT22;10178;48.034;9.800;2023-03-01T07:53:09;1.80;99.90
20035;DHT22;10178;48.034;9.800;2023-03-01T07:55:36;1.80;99.90
20035;DHT22;10178;48.034;9.800;2023-03-01T07:58:01;1.90;99.90
20035;DHT22;10178;48.034;9.800;2023-03-01T08:00:27;1.90;99.90
20035;DHT22;10178;48.034;9.800;2023-03-01T08:02:52;1.90;99.90
20035;DHT22;10178;48.034;9.800;2023-03-01T08:05:18;1.90;99.90
20035;DHT22;10178;48.034;9.800;2023-03-01T08:07:44;1.80;99.90
20035;DHT22;10178;48.034;9.800;2023-03-01T08:10:10;1.90;99.90
20035;DHT22;10178;48.034;9.800;2023-03-01T08:12:36;1.90;99.90
20035;DHT22;10178;48.034;9.800;2023-03-01T08:15:02;1.90;99.90
20035;DHT22;10178;48.034;9.800;2023-03-01T08:17:27;1.90;99.90
20035;DHT22;10178;48.034;9.800;2023-03-01T08:19:53;1.90;99.90
20035;DHT22;10178;48.034;9.800;2023-03-01T08:22:18;1.90;99.90
20035;DHT22;10178;48.034;9.800;2023-03-01T08:24:44;1.80;99.90
20035;DHT22;10178;48.034;9.800;2023-03-01T08:27:09;2.00;99.90
20035;DHT22;10178;48.034;9.800;2023-03-01T08:29:37;2.00;99.90
20035;DHT22;10178;48.034;9.800;2023-03-01T08:32:03;2.20;99.90
20035;DHT22;10178;48.034;9.800;2023-03-01T08:34:28;2.40;99.90
20035;DHT22;10178;48.034;9.800;2023-03-01T08:36:54;2.50;99.90
20035;DHT22;10178;48.034;9.800;2023-03-01T08:39:21;2.60;99.90
20035;DHT22;10178;48.034;9.800;2023-03-01T08:41:47;2.50;99.90
20035;DHT22;10178;48.034;9.800;2023-03-01T08:44:14;2.50;99.90
20035;DHT22;10178;48.034;9.800;2023-03-01T08:46:41;2.70;99.90
20035;DHT22;10178;48.034;9.800;2023-03-01T08:49:12;2.80;99.90
20035;DHT22;10178;48.034;9.800;2023-03-01T08:51:39;3.00;99.90
20035;DHT22;10178;48.034;9.800;2023-03-01T08:54:09;3.00;99.90
20035;DHT22;10178;48.034;9.800;2023-03-01T08:56:35;3.00;99.90
20035;DHT22;10178;48.034;9.800;2023-03-01T08:59:02;3.10;99.90
20035;DHT22;10178;48.034;9.800;2023-03-01T09:01:28;3.10;99.90
20035;DHT22;10178;48.034;9.800;2023-03-01T09:03:54;3.10;99.90
20035;DHT22;10178;48.034;9.800;2023-03-01T09:06:19;3.10;99.90
20035;DHT22;10178;48.034;9.800;2023-03-01T09:08:49;3.10;99.90
20035;DHT22;10178;48.034;9.800;2023-03-01T09:11:18;3.20;99.90
20035;DHT22;10178;48.034;9.800;2023-03-01T09:13:45;3.10;99.90
20035;DHT22;10178;48.034;9.800;2023-03-01T09:16:14;2.80;99.90
20035;DHT22;10178;48.034;9.800;2023-03-01T09:18:39;2.90;99.90
20035;DHT22;10178;48.034;9.800;2023-03-01T09:21:08;3.00;99.90
20035;DHT22;10178;48.034;9.800;2023-03-01T09:23:38;3.20;99.90
20035;DHT22;10178;48.034;9.800;2023-03-01T09:26:25;2.80;99.90
20035;DHT22;10178;48.034;9.800;2023-03-01T09:28:52;2.40;99.90
20035;DHT22;10178;48.034;9.800;2023-03-01T09:31:21;2.30;99.90
20035;DHT22;10178;48.034;9.800;2023-03-01T09:33:48;2.10;99.90
20035;DHT22;10178;48.034;9.800;2023-03-01T09:36:17;2.20;99.90
20035;DHT22;10178;48.034;9.800;2023-03-01T09:38:43;2.00;99.90
20035;DHT22;10178;48.034;9.800;2023-03-01T09:44:03;2.10;99.90
20035;DHT22;10178;48.034;9.800;2023-03-01T09:46:34;2.10;99.90
20035;DHT22;10178;48.034;9.800;2023-03-01T09:49:05;2.00;99.90
20035;DHT22;10178;48.034;9.800;2023-03-01T09:51:35;2.10;99.90
20035;DHT22;10178;48.034;9.800;2023-03-01T09:54:02;2.10;99.90
20035;DHT22;10178;48.034;9.800;2023-03-01T09:56:59;2.00;99.90
20035;DHT22;10178;48.034;9.800;2023-03-01T10:09:55;2.00;99.90
20035;DHT22;10178;48.034;9.800;2023-03-01T10:12:32;2.10;99.90
20035;DHT22;10178;48.034;9.800;2023-03-01T10:15:05;2.20;99.90
20035;DHT22;10178;48.034;9.800;2023-03-01T10:20:21;2.00;99.90
20035;DHT22;10178;48.034;9.800;2023-03-01T10:22:48;1.90;99.90
20035;DHT22;10178;48.034;9.800;2023-03-01T10:26:12;2.10;99.90
20035;DHT22;10178;48.034;9.800;2023-03-01T10:28:47;2.20;99.90
20035;DHT22;10178;48.034;9.800;2023-03-01T10:31:19;2.20;99.90
20035;DHT22;10178;48.034;9.800;2023-03-01T10:33:45;2.30;99.90
20035;DHT22;10178;48.034;9.800;2023-03-01T10:36:13;2.20;99.90
20035;DHT22;10178;48.034;9.800;2023-03-01T10:38:54;2.20;99.90
20035;DHT22;10178;48.034;9.800;2023-03-01T10:41:21;2.30;99.90
20035;DHT22;10178;48.034;9.800;2023-03-01T10:43:52;2.10;99.90
20035;DHT22;10178;48.034;9.800;2023-03-01T10:46:24;2.20;99.90
20035;DHT22;10178;48.034;9.800;2023-03-01T10:49:13;2.30;99.90
20035;DHT22;10178;48.034;9.800;2023-03-01T10:51:45;1.80;99.90
20035;DHT22;10178;48.034;9.800;2023-03-01T10:54:32;1.60;99.90
20035;DHT22;10178;48.034;9.800;2023-03-01T10:57:28;1.70;99.90
20035;DHT22;10178;48.034;9.800;2023-03-01T11:00:23;1.80;99.90
20035;DHT22;10178;48.034;9.800;2023-03-01T11:03:00;2.10;99.90
20035;DHT22;10178;48.034;9.800;2023-03-01T11:05:26;2.00;99.90
20035;DHT22;10178;48.034;9.800;2023-03-01T11:07:57;2.00;99.90
20035;DHT22;10178;48.034;9.800;2023-03-01T11:10:31;1.90;99.90
20035;DHT22;10178;48.034;9.800;2023-03-01T11:13:19;1.90;99.90
20035;DHT22;10178;48.034;9.800;2023-03-01T11:16:03;2.10;99.90
20035;DHT22;10178;48.034;9.800;2023-03-01T11:18:31;2.30;99.90
20035;DHT22;10178;48.034;9.800;2023-03-01T11:20:58;2.30;99.90
20035;DHT22;10178;48.034;9.800;2023-03-01T11:23:25;2.40;99.90
20035;DHT22;10178;48.034;9.800;2023-03-01T11:25:59;2.30;99.90
20035;DHT22;10178;48.034;9.800;2023-03-01T11:28:27;2.40;99.90
20035;DHT22;10178;48.034;9.800;2023-03-01T11:31:06;2.30;99.90
20035;DHT22;10178;48.034;9.800;2023-03-01T11:33:44;2.20;99.90
20035;DHT22;10178;48.034;9.800;2023-03-01T11:36:49;2.30;99.90
20035;DHT22;10178;48.034;9.800;2023-03-01T11:39:39;2.20;99.90
20035;DHT22;10178;48.034;9.800;2023-03-01T11:42:13;2.30;99.90
20035;DHT22;10178;48.034;9.800;2023-03-01T11:44:41;2.40;99.90
20035;DHT22;10178;48.034;9.800;2023-03-01T11:58:14;2.50;99.90
20035;DHT22;10178;48.034;9.800;2023-03-01T12:01:18;2.30;99.90
20035;DHT22;10178;48.034;9.800;2023-03-01T12:12:32;2.50;99.90
20035;DHT22;10178;48.034;9.800;2023-03-01T12:28:33;2.60;99.90
20035;DHT22;10178;48.034;9.800;2023-03-01T12:33:58;2.70;99.90
20035;DHT22;10178;48.034;9.800;2023-03-01T12:36:45;2.70;99.90
20035;DHT22;10178;48.034;9.800;2023-03-01T12:45:12;2.70;99.90
20035;DHT22;10178;48.034;9.800;2023-03-01T12:47:58;2.70;99.90
20035;DHT22;10178;48.034;9.800;2023-03-01T12:50:38;2.80;99.90
20035;DHT22;10178;48.034;9.800;2023-03-01T12:53:07;2.70;99.90
20035;DHT22;10178;48.034;9.800;2023-03-01T12:55:39;2.70;99.90
20035;DHT22;10178;48.034;9.800;2023-03-01T13:00:52;2.80;99.90
20035;DHT22;10178;48.034;9.800;2023-03-01T13:08:55;2.30;99.90
20035;DHT22;10178;48.034;9.800;2023-03-01T13:11:23;2.20;99.90
20035;DHT22;10178;48.034;9.800;2023-03-01T13:13:49;2.00;99.90
20035;DHT22;10178;48.034;9.800;2023-03-01T13:16:40;2.10;99.90
20035;DHT22;10178;48.034;9.800;2023-03-01T13:19:10;2.30;99.90
20035;DHT22;10178;48.034;9.800;2023-03-01T13:21:38;2.40;99.90
20035;DHT22;10178;48.034;9.800;2023-03-01T13:24:09;2.40;99.90
20035;DHT22;10178;48.034;9.800;2023-03-01T13:29:46;2.20;99.90
20035;DHT22;10178;48.034;9.800;2023-03-01T13:32:33;2.30;99.90
20035;DHT22;10178;48.034;9.800;2023-03-01T13:37:45;2.60;99.90
20035;DHT22;10178;48.034;9.800;2023-03-01T13:42:47;2.70;99.90
20035;DHT22;10178;48.034;9.800;2023-03-01T13:48:15;2.60;99.90
20035;DHT22;10178;48.034;9.800;2023-03-01T13:50:48;2.70;99.90
20035;DHT22;10178;48.034;9.800;2023-03-01T13:53:18;2.70;99.90
20035;DHT22;10178;48.034;9.800;2023-03-01T13:55:55;2.80;99.90
20035;DHT22;10178;48.034;9.800;2023-03-01T13:58:25;2.90;99.90
20035;DHT22;10178;48.034;9.800;2023-03-01T14:01:03;2.90;99.90
20035;DHT22;10178;48.034;9.800;2023-03-01T14:03:30;2.80;99.90
20035;DHT22;10178;48.034;9.800;2023-03-01T14:06:03;3.00;99.90
20035;DHT22;10178;48.034;9.800;2023-03-01T14:08:32;3.00;99.90
20035;DHT22;10178;48.034;9.800;2023-03-01T14:11:20;2.80;99.90
20035;DHT22;10178;48.034;9.800;2023-03-01T14:13:56;2.70;99.90
20035;DHT22;10178;48.034;9.800;2023-03-01T14:19:27;2.80;99.90
20035;DHT22;10178;48.034;9.800;2023-03-01T14:25:20;2.80;99.90
20035;DHT22;10178;48.034;9.800;2023-03-01T14:27:55;2.80;99.90
20035;DHT22;10178;48.034;9.800;2023-03-01T14:32:58;2.90;99.90
20035;DHT22;10178;48.034;9.800;2023-03-01T14:35:30;3.00;99.90
20035;DHT22;10178;48.034;9.800;2023-03-01T14:37:56;3.10;99.90
20035;DHT22;10178;48.034;9.800;2023-03-01T14:40:25;3.20;99.90
20035;DHT22;10178;48.034;9.800;2023-03-01T14:42:53;3.20;99.90
20035;DHT22;10178;48.034;9.800;2023-03-01T14:45:20;3.20;99.90
20035;DHT22;10178;48.034;9.800;2023-03-01T14:47:46;3.10;99.90
20035;DHT22;10178;48.034;9.800;2023-03-01T14:50:26;2.90;99.90
20035;DHT22;10178;48.034;9.800;2023-03-01T14:52:59;2.90;99.90
20035;DHT22;10178;48.034;9.800;2023-03-01T14:55:50;2.90;99.90
20035;DHT22;10178;48.034;9.800;2023-03-01T14:58:20;3.10;99.90
20035;DHT22;10178;48.034;9.800;2023-03-01T15:01:04;3.10;99.90
20035;DHT22;10178;48.034;9.800;2023-03-01T15:03:35;3.00;99.90
20035;DHT22;10178;48.034;9.800;2023-03-01T15:06:04;3.10;99.90
20035;DHT22;10178;48.034;9.800;2023-03-01T15:08:31;3.00;99.90
20035;DHT22;10178;48.034;9.800;2023-03-01T15:13:39;3.00;99.90
20035;DHT22;10178;48.034;9.800;2023-03-01T15:16:06;3.00;99.90
20035;DHT22;10178;48.034;9.800;2023-03-01T15:18:33;3.00;99.90
20035;DHT22;10178;48.034;9.800;2023-03-01T15:21:15;3.00;99.90
20035;DHT22;10178;48.034;9.800;2023-03-01T15:23:40;3.00;99.90
20035;DHT22;10178;48.034;9.800;2023-03-01T15:26:16;3.10;99.90
20035;DHT22;10178;48.034;9.800;2023-03-01T15:28:50;3.10;99.90
20035;DHT22;10178;48.034;9.800;2023-03-01T15:31:25;3.10;99.90
20035;DHT22;10178;48.034;9.800;2023-03-01T15:33:51;3.20;99.90
20035;DHT22;10178;48.034;9.800;2023-03-01T15:36:35;3.10;99.90
20035;DHT22;10178;48.034;9.800;2023-03-01T15:42:44;3.10;99.90
20035;DHT22;10178;48.034;9.800;2023-03-01T15:47:47;3.50;99.90
20035;DHT22;10178;48.034;9.800;2023-03-01T15:50:36;3.60;99.90
20035;DHT22;10178;48.034;9.800;2023-03-01T15:53:06;4.00;99.90
20035;DHT22;10178;48.034;9.800;2023-03-01T15:55:33;4.10;99.90
20035;DHT22;10178;48.034;9.800;2023-03-01T16:00:26;4.40;99.90
20035;DHT22;10178;48.034;9.800;2023-03-01T16:02:52;4.40;99.90
20035;DHT22;10178;48.034;9.800;2023-03-01T16:07:48;4.00;99.90
20035;DHT22;10178;48.034;9.800;2023-03-01T16:10:15;3.80;99.90
20035;DHT22;10178;48.034;9.800;2023-03-01T16:12:41;3.60;99.90
20035;DHT22;10178;48.034;9.800;2023-03-01T16:15:22;3.60;99.90
20035;DHT22;10178;48.034;9.800;2023-03-01T16:17:48;4.00;99.90
20035;DHT22;10178;48.034;9.800;2023-03-01T16:20:14;4.10;99.90
20035;DHT22;10178;48.034;9.800;2023-03-01T16:22:43;4.20;99.90
20035;DHT22;10178;48.034;9.800;2023-03-01T16:25:15;4.00;99.90
20035;DHT22;10178;48.034;9.800;2023-03-01T16:27:45;4.10;99.90
20035;DHT22;10178;48.034;9.800;2023-03-01T16:30:13;4.20;99.90
20035;DHT22;10178;48.034;9.800;2023-03-01T16:32:43;4.00;99.90
20035;DHT22;10178;48.034;9.800;2023-03-01T16:35:10;4.20;99.90
20035;DHT22;10178;48.034;9.800;2023-03-01T16:37:36;4.20;99.90
20035;DHT22;10178;48.034;9.800;2023-03-01T16:40:02;4.40;99.90
20035;DHT22;10178;48.034;9.800;2023-03-01T16:42:33;4.40;99.90
20035;DHT22;10178;48.034;9.800;2023-03-01T16:44:59;4.40;99.90
20035;DHT22;10178;48.034;9.800;2023-03-01T16:47:25;4.60;99.90
20035;DHT22;10178;48.034;9.800;2023-03-01T16:49:52;4.50;99.90
20035;DHT22;10178;48.034;9.800;2023-03-01T16:52:18;4.60;99.90
20035;DHT22;10178;48.034;9.800;2023-03-01T16:54:43;4.80;99.90
20035;DHT22;10178;48.034;9.800;2023-03-01T16:57:09;5.00;99.90
20035;DHT22;10178;48.034;9.800;2023-03-01T16:59:35;5.10;99.90
20035;DHT22;10178;48.034;9.800;2023-03-01T17:02:01;5.20;99.90
20035;DHT22;10178;48.034;9.800;2023-03-01T17:04:27;5.20;99.90
20035;DHT22;10178;48.034;9.800;2023-03-01T17:06:52;5.20;99.90
20035;DHT22;10178;48.034;9.800;2023-03-01T17:09:18;5.30;99.90
20035;DHT22;10178;48.034;9.800;2023-03-01T17:11:47;5.20;99.90
20035;DHT22;10178;48.034;9.800;2023-03-01T17:14:13;5.20;99.90
20035;DHT22;10178;48.034;9.800;2023-03-01T17:16:41;5.30;99.90
20035;DHT22;10178;48.034;9.800;2023-03-01T17:19:06;5.10;99.90
20035;DHT22;10178;48.034;9.800;2023-03-01T17:21:32;4.70;99.90
20035;DHT22;10178;48.034;9.800;2023-03-01T17:23:58;4.80;99.90
20035;DHT22;10178;48.034;9.800;2023-03-01T17:26:24;5.00;99.90
20035;DHT22;10178;48.034;9.800;2023-03-01T17:28:49;4.90;99.90
20035;DHT22;10178;48.034;9.800;2023-03-01T17:31:17;4.90;99.90
20035;DHT22;10178;48.034;9.800;2023-03-01T17:33:42;4.90;99.90
20035;DHT22;10178;48.034;9.800;2023-03-01T17:36:08;5.00;99.90
20035;DHT22;10178;48.034;9.800;2023-03-01T17:38:34;4.90;99.90
20035;DHT22;10178;48.034;9.800;2023-03-01T17:41:02;4.80;99.90
20035;DHT22;10178;48.034;9.800;2023-03-01T17:43:28;4.60;99.90
20035;DHT22;10178;48.034;9.800;2023-03-01T17:45:55;4.20;99.90
20035;DHT22;10178;48.034;9.800;2023-03-01T17:48:21;4.00;99.90
20035;DHT22;10178;48.034;9.800;2023-03-01T17:50:47;3.80;99.90
20035;DHT22;10178;48.034;9.800;2023-03-01T17:53:13;3.50;99.90